Time;durP1;ratioP1;P1;durP2;ratioP2;P2;SDS_P1;SDS_P2;PMS_P1;PMS_P2;Temp;Humidity;BMP_temperature;BMP_pressure;BME280_temperature;BME280_humidity;BME280_pressure;Samples;Min_cycle;Max_cycle;Signal;HPM_P1;HPM_P2
2022/01/11 00:02:09;;;;;;;20.93;7.37;;;;;;;-145.69;100.00;74029.88;5073930;28;20565;-77
2022/01/11 00:04:36;;;;;;;18.23;6.33;;;;;;;-145.69;100.00;74049.78;5073755;28;20198;-76
2022/01/11 00:07:05;;;;;;;17.00;6.47;;;;;;;-145.69;100.00;74063.72;5073681;28;20289;-76
2022/01/11 00:09:39;;;;;;;14.23;5.40;;;;;;;-145.69;100.00;74073.69;5073640;28;20286;-76
2022/01/11 00:12:08;;;;;;;12.27;4.90;;;;;;;-145.69;100.00;74075.69;5073601;28;20260;-76
2022/01/11 00:14:35;;;;;;;16.47;5.07;;;;;;;-145.69;100.00;74079.66;5073376;28;20195;-76
2022/01/11 00:17:02;;;;;;;12.37;5.20;;;;;;;-145.69;100.00;74069.69;5073512;28;20199;-76
2022/01/11 00:19:29;;;;;;;15.57;5.37;;;;;;;-145.69;100.00;74071.69;5073410;28;20206;-76
2022/01/11 00:21:56;;;;;;;16.33;5.40;;;;;;;-145.69;100.00;74069.69;5072348;28;20321;-77
2022/01/11 00:24:29;;;;;;;14.63;5.50;;;;;;;-145.69;100.00;74069.69;5073173;28;20585;-76
2022/01/11 00:26:58;;;;;;;15.37;5.50;;;;;;;-145.69;100.00;74057.75;5073201;28;20209;-76
2022/01/11 00:29:25;;;;;;;16.67;5.83;;;;;;;-145.69;100.00;74057.75;5073330;28;20199;-75
2022/01/11 00:31:52;;;;;;;17.27;6.07;;;;;;;-145.69;100.00;74047.78;5073360;28;20565;-76
2022/01/11 00:34:20;;;;;;;20.83;6.27;;;;;;;-145.69;100.00;74049.78;5073232;28;20290;-76
2022/01/11 00:36:47;;;;;;;21.13;6.47;;;;;;;-145.69;100.00;74045.81;5073195;28;20209;-76
2022/01/11 00:39:14;;;;;;;19.50;6.90;;;;;;;-145.69;100.00;74037.84;5073044;28;20202;-76
2022/01/11 00:41:42;;;;;;;18.03;7.17;;;;;;;-145.69;100.00;74021.91;5072796;28;20242;-76
2022/01/11 00:44:10;;;;;;;21.37;7.07;;;;;;;-145.69;100.00;74021.91;5071021;28;20210;-76
2022/01/11 00:46:38;;;;;;;16.47;6.43;;;;;;;-145.69;100.00;74013.94;5073187;28;20205;-76
2022/01/11 00:49:06;;;;;;;17.13;5.57;;;;;;;-145.69;100.00;74004.00;5073115;28;20198;-76
2022/01/11 00:51:32;;;;;;;10.53;5.20;;;;;;;-145.69;100.00;74013.94;5073008;28;20293;-76
2022/01/11 00:53:59;;;;;;;16.97;5.97;;;;;;;-145.69;100.00;74011.97;5072801;28;20688;-76
2022/01/11 00:56:25;;;;;;;19.30;5.77;;;;;;;-145.69;100.00;74015.94;5073113;28;20205;-76
2022/01/11 00:58:53;;;;;;;16.50;5.70;;;;;;;-145.69;100.00;74013.94;5072993;28;20561;-76
2022/01/11 01:01:21;;;;;;;17.37;5.67;;;;;;;-145.69;100.00;74017.94;5072879;28;20226;-76
2022/01/11 01:03:48;;;;;;;14.67;5.37;;;;;;;-145.69;100.00;74013.94;5072850;28;20214;-76
2022/01/11 01:06:14;;;;;;;19.23;5.77;;;;;;;-145.69;100.00;74025.91;5072849;28;20199;-76
2022/01/11 01:08:41;;;;;;;17.63;6.13;;;;;;;-145.69;100.00;74037.84;5072697;28;20198;-76
2022/01/11 01:11:07;;;;;;;13.70;5.67;;;;;;;-145.69;100.00;74035.84;5072970;28;20202;-76
2022/01/11 01:13:34;;;;;;;14.37;5.70;;;;;;;-145.69;100.00;74041.81;5072552;28;20203;-76
2022/01/11 01:16:00;;;;;;;15.10;5.87;;;;;;;-145.69;100.00;74037.84;5072348;28;20232;-76
2022/01/11 01:18:32;;;;;;;34.77;7.50;;;;;;;-145.69;100.00;74027.88;5072491;28;20209;-76
2022/01/11 01:20:59;;;;;;;16.33;6.00;;;;;;;-145.69;100.00;74029.88;5072256;28;20261;-76
2022/01/11 01:23:26;;;;;;;20.10;6.23;;;;;;;-145.69;100.00;74025.91;5072935;28;20217;-76
2022/01/11 01:25:53;;;;;;;25.23;6.27;;;;;;;-145.69;100.00;74029.88;5072561;28;20207;-76
2022/01/11 01:28:22;;;;;;;17.10;6.13;;;;;;;-145.69;100.00;74025.91;5072607;28;20222;-76
2022/01/11 01:30:49;;;;;;;14.63;6.23;;;;;;;-145.69;100.00;74025.91;5072604;28;20276;-76
2022/01/11 01:33:17;;;;;;;24.38;8.27;;;;;;;-145.69;100.00;74019.91;5074933;28;20438;-76
2022/01/11 01:35:50;;;;;;;20.70;7.37;;;;;;;-145.69;100.00;74023.91;5076459;28;20584;-76
2022/01/11 01:38:21;;;;;;;19.20;6.00;;;;;;;-145.69;100.00;74023.91;5076647;28;20206;-76
2022/01/11 01:40:48;;;;;;;19.13;6.27;;;;;;;-145.69;100.00;74021.91;5076449;28;20238;-76
2022/01/11 01:43:14;;;;;;;20.40;7.30;;;;;;;-145.69;100.00;74019.91;5075970;28;20229;-76
2022/01/11 01:45:43;;;;;;;20.70;7.07;;;;;;;-145.69;100.00;74023.91;5076346;28;20203;-75
2022/01/11 01:48:10;;;;;;;20.07;7.57;;;;;;;-145.69;100.00;74021.91;5076195;28;20221;-76
2022/01/11 01:50:36;;;;;;;22.00;6.80;;;;;;;-145.69;100.00;74017.94;5076357;28;20221;-76
2022/01/11 01:53:10;;;;;;;16.90;5.87;;;;;;;-145.69;100.00;74013.94;5076078;28;20205;-76
2022/01/11 01:55:38;;;;;;;15.47;6.30;;;;;;;-145.69;100.00;74011.97;5076351;28;20230;-75
2022/01/11 01:58:05;;;;;;;17.53;6.00;;;;;;;-145.69;100.00;74013.94;5076052;28;20206;-75
2022/01/11 02:00:32;;;;;;;18.77;6.80;;;;;;;-145.69;100.00;74009.97;5075947;28;20226;-76
2022/01/11 02:03:10;;;;;;;12.80;5.57;;;;;;;-145.69;100.00;73998.03;5075892;28;20199;-76
2022/01/11 02:05:37;;;;;;;24.37;7.27;;;;;;;-145.69;100.00;73998.03;5076080;28;20199;-76
2022/01/11 02:08:07;;;;;;;21.27;7.83;;;;;;;-145.69;100.00;73998.03;5075819;28;20727;-76
2022/01/11 02:10:35;;;;;;;19.30;8.00;;;;;;;-145.69;100.00;74005.97;5075816;28;20203;-76
2022/01/11 02:13:01;;;;;;;16.97;6.67;;;;;;;-145.69;100.00;74017.94;5074395;28;20210;-76
2022/01/11 02:15:28;;;;;;;19.40;6.73;;;;;;;-145.69;100.00;74015.94;5075776;28;20207;-76
2022/01/11 02:17:55;;;;;;;18.27;6.97;;;;;;;-145.69;100.00;74011.97;5075867;28;20230;-76
2022/01/11 02:20:22;;;;;;;13.90;5.87;;;;;;;-145.69;100.00;74023.91;5075672;28;20202;-76
2022/01/11 02:22:49;;;;;;;18.63;5.53;;;;;;;-145.69;100.00;74037.84;5075624;28;20202;-76
2022/01/11 02:25:18;;;;;;;15.83;5.90;;;;;;;-145.69;100.00;74033.84;5075632;28;20199;-76
2022/01/11 02:27:45;;;;;;;16.73;6.13;;;;;;;-145.69;100.00;74025.91;5075381;28;20289;-76
2022/01/11 02:30:12;;;;;;;23.13;7.47;;;;;;;-145.69;100.00;74021.91;5075506;28;20684;-76
2022/01/11 02:32:49;;;;;;;19.80;6.80;;;;;;;-145.69;100.00;74013.94;5075539;28;20226;-76
2022/01/11 02:35:16;;;;;;;18.27;7.00;;;;;;;-145.69;100.00;74011.97;5075581;28;20349;-76
2022/01/11 02:37:44;;;;;;;16.87;6.40;;;;;;;-145.69;100.00;74005.97;5075410;28;20211;-76
2022/01/11 02:40:11;;;;;;;19.03;7.03;;;;;;;-145.69;100.00;74002.00;5075199;28;20210;-76
2022/01/11 02:42:37;;;;;;;14.10;5.83;;;;;;;-145.69;100.00;73998.03;5074677;28;20222;-76
2022/01/11 02:45:04;;;;;;;21.60;6.90;;;;;;;-145.69;100.00;74002.00;5074393;28;20256;-76
2022/01/11 02:47:31;;;;;;;17.97;6.17;;;;;;;-145.69;100.00;74002.00;5075109;28;20669;-76
2022/01/11 02:49:57;;;;;;;21.70;6.90;;;;;;;-145.69;100.00;73994.03;5074483;28;20198;-76
2022/01/11 02:52:24;;;;;;;20.07;6.77;;;;;;;-145.69;100.00;74000.00;5074646;28;20201;-76
2022/01/11 02:54:53;;;;;;;19.57;6.00;;;;;;;-145.69;100.00;74005.97;5075062;28;20199;-76
2022/01/11 02:57:20;;;;;;;15.20;5.50;;;;;;;-145.69;100.00;74005.97;5074437;28;20311;-77
2022/01/11 02:59:46;;;;;;;20.03;6.13;;;;;;;-145.69;100.00;74002.00;5075110;28;20206;-76
2022/01/11 03:02:13;;;;;;;14.07;6.47;;;;;;;-145.69;100.00;74004.00;5075072;28;20688;-77
2022/01/11 03:04:39;;;;;;;23.93;7.23;;;;;;;-145.69;100.00;73996.03;5074934;28;20256;-76
2022/01/11 03:07:06;;;;;;;20.93;6.60;;;;;;;-145.69;100.00;74002.00;5074847;28;20207;-77
2022/01/11 03:09:47;;;;;;;15.67;5.73;;;;;;;-145.69;100.00;74002.00;5074910;28;20203;-77
2022/01/11 03:12:17;;;;;;;18.63;6.27;;;;;;;-145.69;100.00;73992.03;5074789;28;20202;-77
2022/01/11 03:14:43;;;;;;;20.00;6.30;;;;;;;-145.69;100.00;73988.06;5074869;28;20234;-76
2022/01/11 03:17:12;;;;;;;17.10;5.77;;;;;;;-145.69;100.00;73990.06;5074797;28;20215;-76
2022/01/11 03:19:38;;;;;;;17.97;7.00;;;;;;;-145.69;100.00;73982.09;5074708;28;20198;-77
2022/01/11 03:22:05;;;;;;;17.23;7.23;;;;;;;-145.69;100.00;73980.09;5074222;28;20222;-77
2022/01/11 03:24:31;;;;;;;23.23;6.80;;;;;;;-145.69;100.00;73980.09;5073576;28;20202;-77
2022/01/11 03:27:01;;;;;;;22.10;6.80;;;;;;;-145.69;100.00;73974.13;5074640;28;20202;-76
2022/01/11 03:29:28;;;;;;;17.57;6.90;;;;;;;-145.69;100.00;73966.16;5074605;28;20198;-77
2022/01/11 03:31:55;;;;;;;16.97;7.03;;;;;;;-145.69;100.00;73968.16;5074280;28;20202;-76
2022/01/11 03:34:21;;;;;;;15.63;5.60;;;;;;;-145.69;100.00;73984.09;5074223;28;20203;-77
2022/01/11 03:36:48;;;;;;;15.83;6.00;;;;;;;-145.69;100.00;73978.09;5074068;28;20199;-76
2022/01/11 03:39:17;;;;;;;14.60;6.17;;;;;;;-145.69;100.00;73966.16;5074553;28;20205;-77
2022/01/11 03:41:43;;;;;;;20.07;6.80;;;;;;;-145.69;100.00;73970.16;5073547;28;20223;-76
2022/01/11 03:44:10;;;;;;;18.07;7.67;;;;;;;-145.69;100.00;73968.16;5073902;28;20203;-76
2022/01/11 03:46:38;;;;;;;22.80;7.77;;;;;;;-145.69;100.00;73958.19;5073918;28;20203;-76
2022/01/11 03:49:04;;;;;;;18.93;6.57;;;;;;;-145.69;100.00;73962.19;5074059;28;20203;-76
2022/01/11 03:51:33;;;;;;;21.17;6.93;;;;;;;-145.69;100.00;73958.19;5074212;28;20229;-77
2022/01/11 03:54:08;;;;;;;18.80;6.70;;;;;;;-145.69;100.00;73958.19;5074192;28;20248;-77
2022/01/11 03:56:35;;;;;;;14.00;6.37;;;;;;;-145.69;100.00;73950.22;5073922;28;20238;-76
2022/01/11 03:59:06;;;;;;;15.57;6.37;;;;;;;-145.69;100.00;73940.28;5073826;28;20209;-76
2022/01/11 04:01:32;;;;;;;26.90;8.50;;;;;;;-145.69;100.00;73942.25;5073693;28;20227;-76
2022/01/11 04:04:00;;;;;;;24.33;7.93;;;;;;;-145.69;100.00;73944.25;5073933;28;20199;-76
2022/01/11 04:06:27;;;;;;;29.97;9.17;;;;;;;-145.69;100.00;73942.25;5073890;28;20210;-77
2022/01/11 04:08:54;;;;;;;23.20;7.17;;;;;;;-145.69;100.00;73958.19;5073687;28;20203;-76
2022/01/11 04:11:21;;;;;;;15.63;5.60;;;;;;;-145.69;100.00;73956.19;5073481;28;20558;-77
2022/01/11 04:13:48;;;;;;;30.83;8.00;;;;;;;-145.69;100.00;73952.22;5073531;28;20210;-76
2022/01/11 04:16:18;;;;;;;18.37;6.97;;;;;;;-145.69;100.00;73954.22;5073543;28;20546;-76
2022/01/11 04:18:45;;;;;;;19.30;7.77;;;;;;;-145.69;100.00;73954.22;5073692;28;20202;-77
2022/01/11 04:21:13;;;;;;;21.47;8.10;;;;;;;-145.69;100.00;73944.25;5073183;28;20551;-77
2022/01/11 04:23:46;;;;;;;30.63;7.93;;;;;;;-145.69;100.00;73946.25;5073738;28;20198;-77
2022/01/11 04:26:13;;;;;;;20.33;7.67;;;;;;;-145.69;100.00;73946.25;5073639;28;20198;-76
2022/01/11 04:28:39;;;;;;;29.37;9.80;;;;;;;-145.69;100.00;73950.22;5073271;28;20297;-76
2022/01/11 04:31:06;;;;;;;39.80;11.43;;;;;;;-145.69;100.00;73950.22;5073517;28;20203;-76
2022/01/11 04:33:33;;;;;;;46.70;12.60;;;;;;;-145.69;100.00;73946.25;5073362;28;20214;-76
2022/01/11 04:36:01;;;;;;;31.70;11.43;;;;;;;-145.69;100.00;73942.25;5073412;28;20203;-76
2022/01/11 04:38:33;;;;;;;57.93;13.47;;;;;;;-145.69;100.00;73940.28;5073142;28;20692;-76
2022/01/11 04:41:00;;;;;;;44.77;13.00;;;;;;;-145.69;100.00;73946.25;5072637;28;20206;-76
2022/01/11 04:43:26;;;;;;;48.80;13.87;;;;;;;-145.69;100.00;73942.25;5072141;28;20230;-76
2022/01/11 04:45:55;;;;;;;58.27;16.20;;;;;;;-145.69;100.00;73942.25;5073090;28;20199;-76
2022/01/11 04:48:25;;;;;;;77.07;19.23;;;;;;;-145.69;100.00;73934.31;5073206;28;20207;-76
2022/01/11 04:50:54;;;;;;;74.53;18.43;;;;;;;-145.69;100.00;73930.31;5072986;28;20206;-75
2022/01/11 04:53:23;;;;;;;73.57;18.90;;;;;;;-145.69;100.00;73920.38;5073315;28;20289;-75
2022/01/11 04:56:00;;;;;;;46.93;15.33;;;;;;;-145.69;100.00;73918.38;5073056;28;20562;-76
2022/01/11 04:58:33;;;;;;;62.33;17.23;;;;;;;-145.69;100.00;73916.38;5073175;28;20198;-76
2022/01/11 05:01:08;;;;;;;62.27;17.37;;;;;;;-145.69;100.00;73914.38;5073036;28;20199;-76
2022/01/11 05:03:35;;;;;;;46.07;13.47;;;;;;;-145.69;100.00;73922.34;5072999;28;20198;-76
2022/01/11 05:06:01;;;;;;;58.87;12.93;;;;;;;-145.69;100.00;73932.31;5072818;28;20224;-76
2022/01/11 05:08:34;;;;;;;41.30;10.97;;;;;;;-145.69;100.00;73928.31;5072473;28;20202;-76
2022/01/11 05:11:04;;;;;;;50.97;13.73;;;;;;;-145.69;100.00;73930.31;5072604;28;20666;-75
2022/01/11 05:13:32;;;;;;;48.47;13.13;;;;;;;-145.69;100.00;73924.34;5072867;28;20199;-76
2022/01/11 05:15:59;;;;;;;49.83;14.37;;;;;;;-145.69;100.00;73922.34;5072818;28;20578;-76
2022/01/11 05:18:25;;;;;;;60.97;16.30;;;;;;;-145.69;100.00;73926.34;5072601;28;20601;-76
2022/01/11 05:20:52;;;;;;;60.37;15.53;;;;;;;-145.69;100.00;73930.31;5072952;28;20207;-76
2022/01/11 05:23:18;;;;;;;84.87;17.77;;;;;;;-145.69;100.00;73938.28;5072650;28;20713;-75
2022/01/11 05:25:48;;;;;;;98.43;18.87;;;;;;;-145.69;100.00;73934.31;5072724;28;20198;-76
2022/01/11 05:28:17;;;;;;;97.43;16.77;;;;;;;-145.69;100.00;73934.31;5072734;28;20209;-76
2022/01/11 05:30:46;;;;;;;61.47;15.90;;;;;;;-145.69;100.00;73934.31;5072689;28;20199;-76
2022/01/11 05:33:15;;;;;;;53.70;14.73;;;;;;;-145.69;100.00;73930.31;5072613;28;20207;-76
2022/01/11 05:35:44;;;;;;;41.20;13.60;;;;;;;-145.69;100.00;73932.31;5072613;28;21047;-76
2022/01/11 05:38:14;;;;;;;35.07;12.23;;;;;;;-145.69;100.00;73934.31;5072383;28;20203;-76
2022/01/11 05:40:54;;;;;;;44.73;13.53;;;;;;;-145.69;100.00;73934.31;5072356;28;20202;-76
2022/01/11 05:43:33;;;;;;;51.33;14.30;;;;;;;-145.69;100.00;73946.25;5072201;28;20234;-76
2022/01/11 05:46:06;;;;;;;50.00;13.27;;;;;;;-145.69;100.00;73950.22;5072300;28;20260;-76
2022/01/11 05:48:33;;;;;;;37.27;11.53;;;;;;;-145.69;100.00;73960.19;5072507;28;20818;-76
2022/01/11 05:51:17;;;;;;;47.70;17.20;;;;;;;-145.69;100.00;73982.09;5071410;28;20484;-76
2022/01/11 05:53:46;;;;;;;38.80;12.17;;;;;;;-145.69;100.00;73994.03;5072559;28;20207;-76
2022/01/11 05:56:15;;;;;;;38.60;13.50;;;;;;;-145.69;100.00;73982.09;5072414;28;20202;-76
2022/01/11 05:58:52;;;;;;;52.20;15.43;;;;;;;-145.69;100.00;73982.09;5072336;28;20211;-76
2022/01/11 06:01:19;;;;;;;60.27;16.80;;;;;;;-145.69;100.00;73982.09;5072564;28;20554;-76
2022/01/11 06:03:50;;;;;;;74.87;21.93;;;;;;;-145.69;100.00;73974.13;5072292;28;20614;-76
2022/01/11 06:06:19;;;;;;;85.63;20.53;;;;;;;-145.69;100.00;73968.16;5072227;28;20203;-76
2022/01/11 06:08:49;;;;;;;75.47;19.43;;;;;;;-145.69;100.00;73974.13;5072428;28;20203;-76
2022/01/11 06:11:27;;;;;;;76.33;18.47;;;;;;;-145.69;100.00;73978.09;5072290;28;20320;-76
2022/01/11 06:14:00;;;;;;;91.97;21.13;;;;;;;-145.69;100.00;73986.06;5072363;28;20561;-77
2022/01/11 06:16:28;;;;;;;68.40;19.00;;;;;;;-145.69;100.00;73974.13;5072152;28;20216;-76
2022/01/11 06:18:57;;;;;;;86.60;20.33;;;;;;;-145.69;100.00;73978.09;5072450;28;20195;-76
2022/01/11 06:21:26;;;;;;;71.63;18.90;;;;;;;-145.69;100.00;73976.13;5075887;28;20202;-76
2022/01/11 06:23:56;;;;;;;102.93;19.40;;;;;;;-145.69;100.00;73978.09;5075590;28;20624;-76
2022/01/11 06:26:23;;;;;;;74.73;19.47;;;;;;;-145.69;100.00;73978.09;5075847;28;20285;-76
2022/01/11 06:28:54;;;;;;;74.63;18.67;;;;;;;-145.69;100.00;73982.09;5075519;28;20198;-76
2022/01/11 06:31:30;;;;;;;82.47;18.33;;;;;;;-145.69;100.00;73974.13;5075712;28;20202;-76
2022/01/11 06:33:56;;;;;;;84.87;19.23;;;;;;;-145.69;100.00;73966.16;5075610;28;20607;-77
2022/01/11 06:36:28;;;;;;;93.43;20.20;;;;;;;-145.69;100.00;73970.16;5075608;28;20228;-76
2022/01/11 06:38:54;;;;;;;84.60;19.57;;;;;;;-145.69;100.00;73962.19;5075500;28;20206;-76
2022/01/11 06:41:22;;;;;;;76.20;17.93;;;;;;;-145.69;100.00;73968.16;5075007;28;20202;-76
2022/01/11 06:43:50;;;;;;;122.87;20.40;;;;;;;-145.69;100.00;73966.16;5075157;28;20226;-76
2022/01/11 06:46:20;;;;;;;91.10;20.83;;;;;;;-145.69;100.00;73974.13;5075195;28;20203;-77
2022/01/11 06:49:02;;;;;;;114.33;20.93;;;;;;;-145.69;100.00;73976.13;5075334;28;20282;-76
2022/01/11 06:51:31;;;;;;;97.30;22.13;;;;;;;-145.69;100.00;73978.09;5074476;28;20222;-76
2022/01/11 06:53:58;;;;;;;210.83;24.57;;;;;;;-145.69;100.00;73984.09;5075035;28;20207;-76
2022/01/11 06:56:31;;;;;;;82.33;18.40;;;;;;;-145.69;100.00;73988.06;5075117;28;20209;-76
2022/01/11 06:59:13;;;;;;;95.17;20.63;;;;;;;-145.69;100.00;73986.06;5075073;28;20199;-76
2022/01/11 07:01:42;;;;;;;160.87;23.77;;;;;;;-145.69;100.00;73990.06;5075101;28;20293;-76
2022/01/11 07:04:29;;;;;;;88.30;20.77;;;;;;;-145.69;100.00;73988.06;5074955;28;20285;-76
2022/01/11 07:06:55;;;;;;;135.67;20.17;;;;;;;-145.69;100.00;73974.13;5074556;28;20201;-76
2022/01/11 07:09:24;;;;;;;81.80;17.87;;;;;;;-145.69;100.00;73992.03;5074995;28;20203;-76
2022/01/11 07:11:51;;;;;;;170.30;22.40;;;;;;;-145.69;100.00;73986.06;5074653;28;20543;-75
2022/01/11 07:14:20;;;;;;;95.63;21.40;;;;;;;-145.69;100.00;73998.03;5074853;28;20245;-76
2022/01/11 07:16:48;;;;;;;102.23;19.10;;;;;;;-145.69;100.00;74007.97;5074526;28;20202;-76
2022/01/11 07:19:24;;;;;;;88.10;19.10;;;;;;;-145.69;100.00;74011.97;5074484;28;20681;-76
2022/01/11 07:21:59;;;;;;;88.73;19.73;;;;;;;-145.69;100.00;73998.03;5074635;28;20202;-76
2022/01/11 07:24:28;;;;;;;189.97;23.73;;;;;;;-145.69;100.00;73994.03;5074676;28;20208;-76
2022/01/11 07:27:03;;;;;;;97.57;22.63;;;;;;;-145.69;100.00;73998.03;5074340;28;20206;-76
2022/01/11 07:29:41;;;;;;;117.57;24.97;;;;;;;-145.69;100.00;74002.00;5074190;28;20194;-76
2022/01/11 07:32:13;;;;;;;103.77;23.73;;;;;;;-145.69;100.00;74005.97;5074191;28;20202;-76
2022/01/11 07:34:43;;;;;;;136.73;32.70;;;;;;;-145.69;100.00;73994.03;5074396;28;20210;-76
2022/01/11 07:37:16;;;;;;;101.23;23.60;;;;;;;-145.69;100.00;73994.03;5074212;28;20198;-77
2022/01/11 07:39:45;;;;;;;86.00;20.67;;;;;;;-145.69;100.00;73994.03;5074299;28;20220;-76
2022/01/11 07:42:11;;;;;;;132.33;22.47;;;;;;;-145.69;100.00;74005.97;5073561;28;20747;-77
2022/01/11 07:44:45;;;;;;;85.00;20.77;;;;;;;-145.69;100.00;73996.03;5074200;28;20213;-76
2022/01/11 07:47:14;;;;;;;103.47;22.87;;;;;;;-145.69;100.00;73980.09;5074237;28;20284;-76
2022/01/11 07:49:41;;;;;;;156.00;25.70;;;;;;;-145.69;100.00;73986.06;5074167;28;20202;-76
2022/01/11 07:52:23;;;;;;;120.20;24.33;;;;;;;-145.69;100.00;73974.13;5074006;28;20202;-76
2022/01/11 07:54:58;;;;;;;126.50;26.83;;;;;;;-145.69;100.00;73990.06;5073856;28;20202;-76
2022/01/11 07:57:29;;;;;;;172.10;27.47;;;;;;;-145.69;100.00;73984.09;5073965;28;20198;-76
2022/01/11 07:59:58;;;;;;;157.10;27.43;;;;;;;-145.69;100.00;73974.13;5073941;28;20210;-76
2022/01/11 08:02:26;;;;;;;101.03;24.67;;;;;;;-145.69;100.00;73982.09;5073731;28;20227;-77
2022/01/11 08:04:56;;;;;;;128.83;25.80;;;;;;;-145.69;100.00;73970.16;5073633;28;20593;-77
2022/01/11 08:07:27;;;;;;;109.33;24.03;;;;;;;-145.69;100.00;73954.22;5073620;28;20202;-76
2022/01/11 08:09:56;;;;;;;105.83;26.10;;;;;;;-145.69;100.00;73940.28;5073288;28;20842;-77
2022/01/11 08:12:24;;;;;;;191.07;26.60;;;;;;;-145.69;100.00;73938.28;5073450;28;20202;-76
2022/01/11 08:15:09;;;;;;;123.57;25.67;;;;;;;-145.69;100.00;73938.28;5073065;28;20290;-77
2022/01/11 08:17:37;;;;;;;143.20;29.75;;;;;;;-145.69;100.00;73928.31;5073442;28;20909;-77
2022/01/11 08:20:09;;;;;;;125.57;27.10;;;;;;;-145.69;100.00;73922.34;5073685;28;20215;-77
2022/01/11 08:22:41;;;;;;;151.00;31.53;;;;;;;-145.69;100.00;73894.47;5073566;28;20219;-77
2022/01/11 08:25:10;;;;;;;213.77;49.40;;;;;;;-145.69;100.00;73878.56;5073412;28;20206;-77
2022/01/11 08:27:41;;;;;;;119.33;29.37;;;;;;;-145.69;100.00;73874.56;5073239;28;20203;-78
2022/01/11 08:30:13;;;;;;;133.13;28.27;;;;;;;-145.69;100.00;73914.38;5073236;28;20671;-77
2022/01/11 08:32:40;;;;;;;108.97;27.87;;;;;;;-145.69;100.00;73904.44;5073454;28;20256;-78
2022/01/11 08:35:09;;;;;;;179.13;25.83;;;;;;;-145.69;100.00;73874.56;5073047;28;20207;-77
2022/01/11 08:37:43;;;;;;;112.33;25.10;;;;;;;-145.69;100.00;73890.50;5073306;28;20206;-77
2022/01/11 08:40:23;;;;;;;107.37;23.80;;;;;;;-145.69;100.00;73882.53;5072815;28;20684;-78
2022/01/11 08:43:10;;;;;;;92.13;26.43;;;;;;;-145.69;100.00;73874.56;5072113;28;20697;-76
2022/01/11 08:45:39;;;;;;;92.33;24.77;;;;;;;-145.69;100.00;73878.56;5073061;28;20207;-77
2022/01/11 08:48:06;;;;;;;107.33;27.03;;;;;;;-145.69;100.00;73882.53;5073141;28;20202;-76
2022/01/11 08:50:42;;;;;;;81.03;23.70;;;;;;;-145.69;100.00;73872.56;5073023;28;20195;-77
2022/01/11 08:53:14;;;;;;;99.40;25.30;;;;;;;-145.69;100.00;73834.75;5073040;28;20206;-77
2022/01/11 08:55:48;;;;;;;98.07;25.90;;;;;;;-145.69;100.00;73846.69;5072945;28;20203;-77
2022/01/11 08:58:16;;;;;;;86.93;24.07;;;;;;;-145.69;100.00;73826.78;5072858;28;20562;-77
2022/01/11 09:00:52;;;;;;;88.83;24.07;;;;;;;-145.69;100.00;73830.75;5072238;28;20576;-77
2022/01/11 09:03:23;;;;;;;86.90;25.17;;;;;;;-145.69;100.00;73854.66;5073202;28;20226;-77
2022/01/11 09:05:51;;;;;;;85.00;24.07;;;;;;;-145.69;100.00;73888.50;5073193;28;20202;-77
2022/01/11 09:08:26;;;;;;;87.43;23.43;;;;;;;-145.69;100.00;73886.50;5073933;28;20205;-77
2022/01/11 09:10:53;;;;;;;77.60;22.90;;;;;;;-145.69;100.00;73882.53;5072407;28;20186;-77
2022/01/11 09:13:25;;;;;;;63.73;21.67;;;;;;;-145.69;100.00;73902.44;5073008;28;20205;-77
2022/01/11 09:15:51;;;;;;;64.13;19.57;;;;;;;-145.69;100.00;73890.50;5072796;28;20198;-77
2022/01/11 09:18:21;;;;;;;67.03;21.60;;;;;;;-145.69;100.00;73902.44;5072781;28;20233;-77
2022/01/11 09:20:52;;;;;;;69.90;20.67;;;;;;;-145.69;100.00;73904.44;5072859;28;20584;-78
2022/01/11 09:23:31;;;;;;;76.23;22.20;;;;;;;-145.69;100.00;73898.47;5072719;28;20230;-77
2022/01/11 09:26:01;;;;;;;49.17;16.83;;;;;;;-145.69;100.00;73874.56;5072866;28;20205;-78
2022/01/11 09:28:30;;;;;;;69.30;20.53;;;;;;;-145.69;100.00;73842.72;5072727;28;20202;-78
2022/01/11 09:31:01;;;;;;;78.50;20.87;;;;;;;-145.69;100.00;73836.75;5072615;28;20252;-78
2022/01/11 09:33:28;;;;;;;64.83;19.30;;;;;;;-145.69;100.00;73808.88;5072611;28;20198;-78
2022/01/11 09:35:54;;;;;;;44.53;14.17;;;;;;;-145.69;100.00;73794.94;5072586;28;20829;-78
2022/01/11 09:38:24;;;;;;;43.67;13.80;;;;;;;-145.69;100.00;73739.19;5072352;28;20669;-78
2022/01/11 09:40:55;;;;;;;59.27;16.20;;;;;;;-145.69;100.00;73667.50;5072253;28;20206;-78
2022/01/11 09:43:25;;;;;;;38.27;13.13;;;;;;;-145.69;100.00;73679.44;5072101;28;20242;-78
2022/01/11 09:45:57;;;;;;;35.60;12.60;;;;;;;-145.69;100.00;73629.66;5072546;28;20209;-78
2022/01/11 09:48:26;;;;;;;27.70;10.97;;;;;;;-145.69;100.00;73615.72;5072462;28;20210;-78
2022/01/11 09:50:58;;;;;;;37.17;12.87;;;;;;;-145.69;100.00;73548.03;5072398;28;20566;-78
2022/01/11 09:53:26;;;;;;;35.20;12.80;;;;;;;-145.69;100.00;73506.22;5073767;28;20217;-77
2022/01/11 09:55:57;;;;;;;31.17;11.20;;;;;;;-145.69;100.00;73536.09;5076618;28;20237;-78
2022/01/11 09:58:24;;;;;;;14.50;6.27;;;;;;;-145.69;100.00;73619.72;5076589;28;20296;-77
2022/01/11 10:01:10;;;;;;;18.50;7.77;;;;;;;-145.69;100.00;73615.72;5076237;28;20286;-77
2022/01/11 10:04:05;;;;;;;20.80;8.53;;;;;;;-145.69;100.00;73625.69;5076094;28;20624;-78
2022/01/11 10:06:32;;;;;;;19.60;7.93;;;;;;;-145.69;100.00;73587.88;5076209;28;20202;-77
2022/01/11 10:09:09;;;;;;;18.13;8.33;;;;;;;-145.69;100.00;73544.06;5075980;28;20221;-77
2022/01/11 10:11:42;;;;;;;15.10;7.50;;;;;;;-145.69;100.00;73496.28;5075613;28;20668;-77
2022/01/11 10:14:29;;;;;;;12.77;5.73;;;;;;;-145.69;100.00;73536.09;5075942;28;20203;-78
2022/01/11 10:17:11;;;;;;;16.37;7.83;;;;;;;-145.69;100.00;73434.56;5076043;28;20285;-78
2022/01/11 10:19:41;;;;;;;17.43;8.03;;;;;;;-145.69;100.00;73446.50;5075889;28;20289;-77
2022/01/11 10:22:09;;;;;;;14.77;5.83;;;;;;;-145.69;100.00;73424.59;5075717;28;20268;-78
2022/01/11 10:24:39;;;;;;;9.97;5.03;;;;;;;-145.69;100.00;73444.50;5075653;28;20645;-78
2022/01/11 10:27:13;;;;;;;10.53;5.37;;;;;;;-145.69;100.00;73404.69;5075582;28;20206;-77
2022/01/11 10:29:42;;;;;;;9.70;4.97;;;;;;;-145.69;100.00;73448.50;5075785;28;20256;-77
2022/01/11 10:32:18;;;;;;;8.70;4.50;;;;;;;-145.69;100.00;73460.44;5075639;28;20195;-78
2022/01/11 10:34:48;;;;;;;8.87;4.33;;;;;;;-145.69;98.64;73548.03;5075437;28;20209;-77
2022/01/11 10:37:27;;;;;;;6.77;3.87;;;;;;;-145.69;100.00;73512.22;5075363;28;20199;-77
2022/01/11 10:40:03;;;;;;;7.27;4.10;;;;;;;-145.69;98.58;73490.31;5075279;28;20236;-77
2022/01/11 10:42:38;;;;;;;6.23;3.37;;;;;;;-145.69;95.44;73466.41;5075281;28;20321;-77
2022/01/11 10:45:09;;;;;;;6.83;3.17;;;;;;;-145.69;95.41;73440.53;5075275;28;20226;-78
2022/01/11 10:47:38;;;;;;;6.27;2.90;;;;;;;-145.69;89.11;73528.13;5075294;28;20206;-77
2022/01/11 10:50:07;;;;;;;7.27;4.03;;;;;;;-145.69;91.26;73550.03;5075598;28;20194;-78
2022/01/11 10:52:35;;;;;;;5.63;3.10;;;;;;;-145.69;92.76;73575.91;5075377;28;20542;-77
2022/01/11 10:55:03;;;;;;;6.20;3.27;;;;;;;-145.69;91.62;73567.94;5064644;28;20561;-77
2022/01/11 10:57:31;;;;;;;6.63;3.30;;;;;;;-145.69;93.90;73569.94;5075173;28;20637;-76
2022/01/11 11:00:17;;;;;;;6.17;3.23;;;;;;;-145.69;90.74;73563.97;5074651;28;20194;-77
2022/01/11 11:02:49;;;;;;;5.00;2.73;;;;;;;-145.69;89.46;73603.78;5062399;28;20199;-77
2022/01/11 11:05:19;;;;;;;8.43;3.10;;;;;;;-145.69;87.73;73603.78;5054156;28;20223;-76
2022/01/11 11:07:58;;;;;;;4.47;2.70;;;;;;;-145.69;90.34;73597.81;5054941;28;20290;-77
2022/01/11 11:10:32;;;;;;;5.17;2.77;;;;;;;-145.69;89.12;73563.97;5055003;28;20203;-77